首页
METAR-TAF:

METAR-TAF

机场 :

拉塔昆加, 厄瓜多尔

纬度: 00-55S, 经度: 078-37W, 海拔: 2785米

当前天气观测

该预报发布于45分钟前的01:00 UTC
风速6节,风向西南
温度 14°C
湿度 72%
气压 1031 hPa
能见度10公里或以上
多云层高于3000英尺

METAR: SELT 250100Z 22006KT 9999 BKN030 14/09 Q1031

时间: 20:45 (01:45 UTC)

预报

该预报发布于2小时和55分钟前的22:50 UTC
预报有效从25日的 00点(UTC)到 25日的 24点(UTC)
风速5节,风向南转西南
能见度10公里或以上
多云层高于3000英尺
成为
从 25日的 03点(UTC)到 25日的 05点(UTC)
少量云层高于1000英尺
多云层高于2300英尺
成为
从 25日的 11点(UTC)到 25日的 13点(UTC)
散云层高于2600英尺
多云层高于8000英尺
成为
从 25日的 17点(UTC)到 25日的 18点(UTC)
风速15节,风向
少量云层高于3000英尺
散云层高于10000英尺
短暂存在
从 25日的 19点(UTC)到 25日的 22点(UTC)
少量云层高于2300英尺, 塔状积云.
多云层高于3000英尺

TAF: SELT 242250Z 2500/2524 20005KT 9999 BKN030 BECMG 2503/2505 FEW010 BKN023 BECMG 2511/2513 SCT026 BKN080 BECMG 2517/2518 18015KT FEW030 SCT100 TEMPO 2519/2522 FEW023TCU BKN030 TX19/2519Z TN09/2510Z

超过4000个机场的气象观测和天气预报(METAR&TAF报告)。

可查询的气象台以黄色和红色小点在地图上表示。

将鼠标移到小点上方,可查看气象台名称。

然后点击查看天气观测和预报。

如需切换地图:点击带黑十字的绿色按钮放大地图;点击带横线的绿色按钮缩小地图;或者点击绿色箭头查看邻近地区的地图。


METAR-TAF: